CheckWX is a tool to help pilots better visualize weather data.  It is not intended as a substitute for an official pre-flight weather briefing.

08:17:11 UTC

LDZD TAF
Zemunik Airport
Zadar, Croatia
TAF LDZD 270525Z 2706/2806 30008KT 9999 SCT050 TX12/2713Z TN06/2706Z BECMG 2718/2720 19010KT BECMG 2802/2804 32010KT PROB30 TEMPO 2803/2806 25015G25KT TSRA FEW030CB BKN040

Feb-27@
06:00 UTC

Feb-27 @ 06:00 UTC

Feb-27@
18:00 UTC

Feb-27 @ 18:00 UTC

TAF LDZD 270525Z 2706/2806 30008KT 9999 SCT050 TX12/2713Z TN06/2706Z
Wind
  • 300° at 8 KTS
Cloud Levels
  • Scattered at 5,000' AGL

Feb-27@
18:00 UTC

Feb-27 @ 18:00 UTC

Feb-28@
02:00 UTC

Feb-28 @ 02:00 UTC

BECMG 2718/2720 19010KT

Becoming

Becoming Conditions expected by Thu, Feb 27, 2020 @ 20:00 UTC

Wind
  • 190° at 10 KTS
Cloud Levels
  • Scattered at 5,000' AGL

Feb-28@
02:00 UTC

Feb-28 @ 02:00 UTC

Feb-28@
06:00 UTC

Feb-28 @ 06:00 UTC

BECMG 2802/2804 32010KT

Becoming

Becoming Conditions expected by Fri, Feb 28, 2020 @ 04:00 UTC

Wind
  • 320° at 10 KTS
Cloud Levels
  • Scattered at 5,000' AGL

Feb-28@
03:00 UTC

Feb-28 @ 03:00 UTC

Feb-28@
06:00 UTC

Feb-28 @ 06:00 UTC

PROB30 TEMPO 2803/2806 25015G25KT TSRA FEW030CB BKN040

Temporary - 30% Likelihood

Temporary - 30% Likelihood during this time.

Wind
  • 250° at 15 KTS
  • {Gusting to 25 KTS
Conditions
Thunderstorm, Rain
Cloud Levels
  • Few at 3,000' AGL
  • Broken at 4,000' AGL